Hernando, MS (38632)

7:08 AM CST on December 09, 2016 (GMT -0600)
| | Change Station

Elev -9999 ft 0.00 °N, 0.00 °E | Updated 9 minutes ago

Clear
Clear
74 °F
Feels Like 74 °F
N
7
Wind Variable Wind from South
Gusts 10 mph

Today
High -- | Low -- °F
--% Chance of Precip.
Yesterday
High -- | Low -- °F
Precip. -- in
Pressure 30.66 in
Visibility 10.0 miles
Clouds Few 1500 ft
Dew Point 73 °F
Humidity 97%
Rainfall --
Snow Depth Not available.
6:56 AM 4:48 PM
Waxing Gibbous, 74% visible
METAR KMEM 091254Z 02004KT 10SM FEW015 M05/M09 A3064 RMK AO2 SLP380 T10501094 $
Pressure 30.66 in
Visibility 10.0 miles
Clouds Few 1500 ft
Dew Point 73 °F
Humidity 97%
Rainfall --
Snow Depth Not available.
6:56 AM 4:48 PM
Waxing Gibbous, 74% visible
METAR KMEM 091254Z 02004KT 10SM FEW015 M05/M09 A3064 RMK AO2 SLP380 T10501094 $

10-Day Weather Forecast

Almanac

Astronomy

Dec. 09, 2016 Rise Set
Actual Time
Civil Twilight
Nautical Twilight
Astronomical Twilight
Moon
Length of Visible Light
Length of Day
Tomorrow will be .
, % of the Moon is Illuminated

Today's Extremes

State Highs State Lows

Community

WunderPhotos

Upload Photos

1,956,407 photos uploaded!

WunderBlog® & News

Nearby

Air Quality

  Air Quality AQ Index Pollutant
Not available.

Snow Depth

Station Depth Elevation

Earthquake Activity

City Distance Mag. Time & Date
Minimum magnitude displayed is 2.5.

Coastal Water Temperatures

Place Temperature

Stations

Nearby Weather Stations

Station Location Temp. Windchill Dew Point Humidity Wind Precip. Elev Updated Type
                   

Watches & Warnings

There are currently no watches in effect.